Athena, Oregon
Current Conditions -  °F | °C
As of 7:53 AM on Friday 31 Oct 2014 (Local Time) from KPDT Reporting Station
Haze Haze  
Wind Chill: 46°   Ceiling: Unl
Heat Index: 48°   Visibility: 5mi
Dew Point: 45°   Wind: 5mph
Humidity: 89%   Direction: 110°ESE
Pressure: 29.71"   Gusts: NA
Location:  45.81°N, 118.49°W
Report Text: KPDT 311453Z 11004KT 5SM BR FEW110 09/07 A2971 RMK AO2 SLP056 T00890072 58016 $
Loading
Personal Weather Stations






























Interactive Weather Map
Tropical Storm Tracking
New forecast layout! Learn more

10-Day Weather Forecast

Advertisements
Track Severe Weather on mobile